Terminal Aerodrome Forecast
Issued by NWS Grand Forks, ND

Home | Current Version | Previous Version | Text Only | Print | Product List | Glossary Off
Versions: 1 2 3 4 5 6 7 8 9 10 11 12 13 14 15 16 17 18 19 20

000
FTUS43 KFGF 281700
TAFFAR
TAF
KFAR 281722Z 2818/2918 16012KT 5SM BR OVC007
     FM282200 VRB03KT 3SM BR OVC005
     FM290100 34020KT P6SM OVC008=

USA.gov is the U.S. government's official web portal to all federal, state and local government web resources and services.